sensor_id;sensor_type;location;lat;lon;timestamp;P1;durP1;ratioP1;P2;durP2;ratioP2
44646;SDS011;56315;-33.902;151.160;2023-05-10T00:01:00;3.17;;;1.50;;
44646;SDS011;56315;-33.902;151.160;2023-05-10T00:03:28;2.97;;;1.08;;
44646;SDS011;56315;-33.902;151.160;2023-05-10T00:05:55;4.78;;;1.48;;
44646;SDS011;56315;-33.902;151.160;2023-05-10T00:08:22;2.95;;;1.15;;
44646;SDS011;56315;-33.902;151.160;2023-05-10T00:10:49;2.88;;;1.20;;
44646;SDS011;56315;-33.902;151.160;2023-05-10T00:13:17;2.15;;;1.23;;
44646;SDS011;56315;-33.902;151.160;2023-05-10T00:15:44;3.78;;;1.00;;
44646;SDS011;56315;-33.902;151.160;2023-05-10T00:18:11;1.92;;;1.20;;
44646;SDS011;56315;-33.902;151.160;2023-05-10T00:20:38;2.42;;;1.10;;
44646;SDS011;56315;-33.902;151.160;2023-05-10T00:23:05;2.97;;;0.80;;
44646;SDS011;56315;-33.902;151.160;2023-05-10T00:25:33;1.70;;;0.68;;
44646;SDS011;56315;-33.902;151.160;2023-05-10T00:28:00;1.90;;;0.77;;
44646;SDS011;56315;-33.902;151.160;2023-05-10T00:30:27;3.30;;;0.77;;
44646;SDS011;56315;-33.902;151.160;2023-05-10T00:32:54;3.17;;;0.80;;
44646;SDS011;56315;-33.902;151.160;2023-05-10T00:35:21;3.88;;;1.00;;
44646;SDS011;56315;-33.902;151.160;2023-05-10T00:37:49;4.93;;;0.82;;
44646;SDS011;56315;-33.902;151.160;2023-05-10T00:40:16;2.15;;;0.70;;
44646;SDS011;56315;-33.902;151.160;2023-05-10T00:42:43;1.92;;;0.60;;
44646;SDS011;56315;-33.902;151.160;2023-05-10T00:45:10;2.58;;;0.70;;
44646;SDS011;56315;-33.902;151.160;2023-05-10T00:47:38;1.70;;;0.60;;
44646;SDS011;56315;-33.902;151.160;2023-05-10T00:50:06;4.15;;;1.00;;
44646;SDS011;56315;-33.902;151.160;2023-05-10T00:52:34;3.63;;;0.60;;
44646;SDS011;56315;-33.902;151.160;2023-05-10T00:55:02;2.80;;;0.80;;
44646;SDS011;56315;-33.902;151.160;2023-05-10T00:57:30;1.60;;;0.65;;
44646;SDS011;56315;-33.902;151.160;2023-05-10T00:59:57;2.45;;;0.80;;
44646;SDS011;56315;-33.902;151.160;2023-05-10T01:02:25;3.20;;;0.95;;
44646;SDS011;56315;-33.902;151.160;2023-05-10T01:04:53;4.32;;;1.05;;
44646;SDS011;56315;-33.902;151.160;2023-05-10T01:07:21;1.70;;;0.60;;
44646;SDS011;56315;-33.902;151.160;2023-05-10T01:09:48;2.60;;;0.80;;
44646;SDS011;56315;-33.902;151.160;2023-05-10T01:12:16;5.25;;;1.90;;
44646;SDS011;56315;-33.902;151.160;2023-05-10T01:14:44;2.40;;;0.82;;
44646;SDS011;56315;-33.902;151.160;2023-05-10T01:17:12;3.60;;;0.73;;
44646;SDS011;56315;-33.902;151.160;2023-05-10T01:19:39;2.25;;;0.73;;
44646;SDS011;56315;-33.902;151.160;2023-05-10T01:33:01;4.07;;;0.85;;
44646;SDS011;56315;-33.902;151.160;2023-05-10T01:36:13;3.75;;;0.73;;
44646;SDS011;56315;-33.902;151.160;2023-05-10T01:38:50;5.07;;;1.00;;
44646;SDS011;56315;-33.902;151.160;2023-05-10T01:42:00;2.35;;;0.75;;
44646;SDS011;56315;-33.902;151.160;2023-05-10T01:47:30;4.55;;;0.70;;
44646;SDS011;56315;-33.902;151.160;2023-05-10T01:50:15;4.35;;;0.95;;
44646;SDS011;56315;-33.902;151.160;2023-05-10T01:52:47;2.95;;;0.90;;
44646;SDS011;56315;-33.902;151.160;2023-05-10T01:57:48;8.93;;;1.20;;
44646;SDS011;56315;-33.902;151.160;2023-05-10T02:00:21;1.95;;;0.80;;
44646;SDS011;56315;-33.902;151.160;2023-05-10T02:02:50;3.25;;;0.77;;
44646;SDS011;56315;-33.902;151.160;2023-05-10T02:05:18;2.05;;;0.85;;
44646;SDS011;56315;-33.902;151.160;2023-05-10T02:07:46;3.70;;;0.80;;
44646;SDS011;56315;-33.902;151.160;2023-05-10T02:10:15;5.50;;;2.53;;
44646;SDS011;56315;-33.902;151.160;2023-05-10T02:12:43;2.10;;;1.05;;
44646;SDS011;56315;-33.902;151.160;2023-05-10T02:15:15;1.98;;;0.88;;
44646;SDS011;56315;-33.902;151.160;2023-05-10T02:17:44;3.83;;;1.00;;
44646;SDS011;56315;-33.902;151.160;2023-05-10T02:20:13;2.58;;;0.90;;
44646;SDS011;56315;-33.902;151.160;2023-05-10T02:22:44;2.63;;;0.88;;
44646;SDS011;56315;-33.902;151.160;2023-05-10T02:25:13;4.88;;;1.10;;
44646;SDS011;56315;-33.902;151.160;2023-05-10T02:27:41;3.17;;;0.70;;
44646;SDS011;56315;-33.902;151.160;2023-05-10T02:30:10;3.72;;;1.00;;
44646;SDS011;56315;-33.902;151.160;2023-05-10T02:32:37;4.35;;;0.90;;
44646;SDS011;56315;-33.902;151.160;2023-05-10T02:35:06;4.70;;;0.80;;
44646;SDS011;56315;-33.902;151.160;2023-05-10T02:37:35;2.90;;;0.93;;
44646;SDS011;56315;-33.902;151.160;2023-05-10T02:40:04;2.25;;;0.80;;
44646;SDS011;56315;-33.902;151.160;2023-05-10T02:42:52;2.67;;;1.00;;
44646;SDS011;56315;-33.902;151.160;2023-05-10T02:45:24;3.83;;;0.80;;
44646;SDS011;56315;-33.902;151.160;2023-05-10T02:47:54;3.95;;;1.05;;
44646;SDS011;56315;-33.902;151.160;2023-05-10T02:50:22;5.18;;;1.20;;
44646;SDS011;56315;-33.902;151.160;2023-05-10T02:52:54;5.60;;;1.23;;
44646;SDS011;56315;-33.902;151.160;2023-05-10T02:55:29;4.72;;;0.85;;
44646;SDS011;56315;-33.902;151.160;2023-05-10T02:58:01;5.10;;;0.88;;
44646;SDS011;56315;-33.902;151.160;2023-05-10T03:00:29;3.75;;;0.80;;
44646;SDS011;56315;-33.902;151.160;2023-05-10T03:02:57;3.22;;;1.30;;
44646;SDS011;56315;-33.902;151.160;2023-05-10T03:05:24;4.13;;;1.02;;
44646;SDS011;56315;-33.902;151.160;2023-05-10T03:07:51;3.17;;;1.08;;
44646;SDS011;56315;-33.902;151.160;2023-05-10T03:10:20;2.90;;;1.20;;
44646;SDS011;56315;-33.902;151.160;2023-05-10T03:18:21;4.13;;;1.13;;
44646;SDS011;56315;-33.902;151.160;2023-05-10T03:20:51;2.70;;;1.00;;
44646;SDS011;56315;-33.902;151.160;2023-05-10T03:23:34;5.35;;;1.40;;
44646;SDS011;56315;-33.902;151.160;2023-05-10T03:26:07;4.97;;;1.40;;
44646;SDS011;56315;-33.902;151.160;2023-05-10T03:28:34;4.68;;;1.25;;
44646;SDS011;56315;-33.902;151.160;2023-05-10T03:31:02;3.40;;;1.27;;
44646;SDS011;56315;-33.902;151.160;2023-05-10T03:33:31;5.88;;;1.10;;
44646;SDS011;56315;-33.902;151.160;2023-05-10T03:35:59;4.35;;;1.30;;
44646;SDS011;56315;-33.902;151.160;2023-05-10T03:38:26;3.75;;;1.30;;
44646;SDS011;56315;-33.902;151.160;2023-05-10T03:40:53;3.72;;;1.25;;
44646;SDS011;56315;-33.902;151.160;2023-05-10T03:43:21;11.70;;;1.77;;
44646;SDS011;56315;-33.902;151.160;2023-05-10T03:45:49;4.95;;;1.35;;
44646;SDS011;56315;-33.902;151.160;2023-05-10T03:48:16;4.38;;;1.80;;
44646;SDS011;56315;-33.902;151.160;2023-05-10T03:50:43;3.22;;;1.10;;
44646;SDS011;56315;-33.902;151.160;2023-05-10T03:53:11;2.63;;;1.10;;
44646;SDS011;56315;-33.902;151.160;2023-05-10T03:55:39;4.80;;;1.30;;
44646;SDS011;56315;-33.902;151.160;2023-05-10T03:58:06;3.65;;;0.98;;
44646;SDS011;56315;-33.902;151.160;2023-05-10T04:00:37;4.32;;;1.40;;
44646;SDS011;56315;-33.902;151.160;2023-05-10T04:03:09;2.78;;;1.08;;
44646;SDS011;56315;-33.902;151.160;2023-05-10T04:05:37;9.88;;;1.60;;
44646;SDS011;56315;-33.902;151.160;2023-05-10T04:08:05;7.43;;;1.67;;
44646;SDS011;56315;-33.902;151.160;2023-05-10T04:10:32;8.20;;;1.30;;
44646;SDS011;56315;-33.902;151.160;2023-05-10T04:13:00;7.38;;;1.55;;
44646;SDS011;56315;-33.902;151.160;2023-05-10T04:15:27;7.53;;;1.23;;
44646;SDS011;56315;-33.902;151.160;2023-05-10T04:17:55;5.75;;;1.52;;
44646;SDS011;56315;-33.902;151.160;2023-05-10T04:20:22;6.35;;;1.52;;
44646;SDS011;56315;-33.902;151.160;2023-05-10T04:22:49;8.48;;;1.70;;
44646;SDS011;56315;-33.902;151.160;2023-05-10T04:25:16;5.38;;;1.20;;
44646;SDS011;56315;-33.902;151.160;2023-05-10T04:27:43;6.35;;;1.40;;
44646;SDS011;56315;-33.902;151.160;2023-05-10T04:30:11;7.72;;;1.70;;
44646;SDS011;56315;-33.902;151.160;2023-05-10T04:32:38;6.40;;;1.60;;
44646;SDS011;56315;-33.902;151.160;2023-05-10T04:35:05;7.25;;;1.95;;
44646;SDS011;56315;-33.902;151.160;2023-05-10T04:37:33;4.60;;;1.45;;
44646;SDS011;56315;-33.902;151.160;2023-05-10T04:40:00;6.07;;;1.33;;
44646;SDS011;56315;-33.902;151.160;2023-05-10T04:42:28;5.03;;;1.38;;
44646;SDS011;56315;-33.902;151.160;2023-05-10T04:44:55;6.57;;;1.58;;
44646;SDS011;56315;-33.902;151.160;2023-05-10T04:47:23;8.48;;;1.67;;
44646;SDS011;56315;-33.902;151.160;2023-05-10T04:49:50;6.57;;;1.48;;
44646;SDS011;56315;-33.902;151.160;2023-05-10T04:52:17;4.40;;;1.08;;
44646;SDS011;56315;-33.902;151.160;2023-05-10T04:54:44;3.47;;;1.02;;
44646;SDS011;56315;-33.902;151.160;2023-05-10T04:57:12;9.18;;;1.50;;
44646;SDS011;56315;-33.902;151.160;2023-05-10T04:59:39;5.60;;;1.33;;
44646;SDS011;56315;-33.902;151.160;2023-05-10T05:02:06;6.22;;;1.40;;
44646;SDS011;56315;-33.902;151.160;2023-05-10T05:04:33;7.45;;;1.85;;
44646;SDS011;56315;-33.902;151.160;2023-05-10T05:07:00;10.32;;;1.55;;
44646;SDS011;56315;-33.902;151.160;2023-05-10T05:09:28;7.95;;;2.50;;
44646;SDS011;56315;-33.902;151.160;2023-05-10T05:11:55;7.13;;;1.70;;
44646;SDS011;56315;-33.902;151.160;2023-05-10T05:14:22;5.00;;;1.38;;
44646;SDS011;56315;-33.902;151.160;2023-05-10T05:16:51;10.18;;;2.42;;
44646;SDS011;56315;-33.902;151.160;2023-05-10T05:19:18;7.57;;;2.30;;
44646;SDS011;56315;-33.902;151.160;2023-05-10T05:21:46;7.65;;;1.70;;
44646;SDS011;56315;-33.902;151.160;2023-05-10T05:24:13;8.10;;;1.40;;
44646;SDS011;56315;-33.902;151.160;2023-05-10T05:26:40;5.47;;;1.55;;
44646;SDS011;56315;-33.902;151.160;2023-05-10T05:29:07;6.88;;;2.10;;
44646;SDS011;56315;-33.902;151.160;2023-05-10T05:31:35;5.93;;;1.40;;
44646;SDS011;56315;-33.902;151.160;2023-05-10T05:34:02;8.52;;;1.20;;
44646;SDS011;56315;-33.902;151.160;2023-05-10T05:36:29;8.05;;;2.00;;
44646;SDS011;56315;-33.902;151.160;2023-05-10T05:38:57;3.88;;;1.00;;
44646;SDS011;56315;-33.902;151.160;2023-05-10T05:41:24;3.08;;;1.08;;
44646;SDS011;56315;-33.902;151.160;2023-05-10T05:43:51;4.80;;;1.45;;
44646;SDS011;56315;-33.902;151.160;2023-05-10T05:46:18;7.35;;;1.60;;
44646;SDS011;56315;-33.902;151.160;2023-05-10T05:48:46;4.65;;;1.55;;
44646;SDS011;56315;-33.902;151.160;2023-05-10T05:51:13;3.50;;;1.00;;
44646;SDS011;56315;-33.902;151.160;2023-05-10T05:53:40;3.25;;;1.25;;
44646;SDS011;56315;-33.902;151.160;2023-05-10T05:56:07;7.00;;;2.47;;
44646;SDS011;56315;-33.902;151.160;2023-05-10T05:58:35;5.93;;;1.40;;
44646;SDS011;56315;-33.902;151.160;2023-05-10T06:01:02;4.70;;;1.92;;
44646;SDS011;56315;-33.902;151.160;2023-05-10T06:03:29;6.50;;;1.20;;
44646;SDS011;56315;-33.902;151.160;2023-05-10T06:05:56;5.63;;;1.35;;
44646;SDS011;56315;-33.902;151.160;2023-05-10T06:08:24;4.15;;;1.10;;
44646;SDS011;56315;-33.902;151.160;2023-05-10T06:10:51;7.22;;;2.03;;
44646;SDS011;56315;-33.902;151.160;2023-05-10T06:13:18;4.90;;;1.15;;
44646;SDS011;56315;-33.902;151.160;2023-05-10T06:15:46;4.43;;;0.95;;
44646;SDS011;56315;-33.902;151.160;2023-05-10T06:18:13;3.92;;;0.95;;
44646;SDS011;56315;-33.902;151.160;2023-05-10T06:20:41;4.57;;;1.25;;
44646;SDS011;56315;-33.902;151.160;2023-05-10T06:23:08;4.07;;;1.13;;
44646;SDS011;56315;-33.902;151.160;2023-05-10T06:25:35;3.25;;;1.33;;
44646;SDS011;56315;-33.902;151.160;2023-05-10T06:28:03;7.07;;;1.95;;
44646;SDS011;56315;-33.902;151.160;2023-05-10T06:30:30;9.23;;;2.50;;
44646;SDS011;56315;-33.902;151.160;2023-05-10T06:32:57;9.40;;;2.45;;
44646;SDS011;56315;-33.902;151.160;2023-05-10T06:35:24;10.43;;;2.53;;
44646;SDS011;56315;-33.902;151.160;2023-05-10T06:37:51;7.47;;;2.30;;
44646;SDS011;56315;-33.902;151.160;2023-05-10T06:40:19;7.93;;;2.30;;
44646;SDS011;56315;-33.902;151.160;2023-05-10T06:42:47;5.85;;;1.20;;
44646;SDS011;56315;-33.902;151.160;2023-05-10T06:45:14;6.15;;;2.05;;
44646;SDS011;56315;-33.902;151.160;2023-05-10T06:47:42;4.30;;;1.55;;
44646;SDS011;56315;-33.902;151.160;2023-05-10T06:50:10;11.63;;;1.73;;
44646;SDS011;56315;-33.902;151.160;2023-05-10T06:52:38;8.20;;;1.85;;
44646;SDS011;56315;-33.902;151.160;2023-05-10T06:55:05;8.38;;;1.50;;
44646;SDS011;56315;-33.902;151.160;2023-05-10T06:57:34;6.47;;;1.70;;
44646;SDS011;56315;-33.902;151.160;2023-05-10T07:00:01;8.32;;;2.10;;
44646;SDS011;56315;-33.902;151.160;2023-05-10T07:02:32;5.85;;;1.77;;
44646;SDS011;56315;-33.902;151.160;2023-05-10T07:04:59;7.88;;;1.80;;
44646;SDS011;56315;-33.902;151.160;2023-05-10T07:07:27;6.57;;;1.65;;
44646;SDS011;56315;-33.902;151.160;2023-05-10T07:09:55;7.45;;;2.22;;
44646;SDS011;56315;-33.902;151.160;2023-05-10T07:12:23;7.20;;;2.13;;
44646;SDS011;56315;-33.902;151.160;2023-05-10T07:14:51;7.95;;;2.25;;
44646;SDS011;56315;-33.902;151.160;2023-05-10T07:17:18;9.75;;;2.40;;
44646;SDS011;56315;-33.902;151.160;2023-05-10T07:19:45;8.15;;;2.13;;
44646;SDS011;56315;-33.902;151.160;2023-05-10T07:22:13;8.50;;;2.08;;
44646;SDS011;56315;-33.902;151.160;2023-05-10T07:24:40;7.13;;;2.20;;
44646;SDS011;56315;-33.902;151.160;2023-05-10T07:27:08;7.65;;;1.90;;
44646;SDS011;56315;-33.902;151.160;2023-05-10T07:29:35;8.73;;;2.33;;
44646;SDS011;56315;-33.902;151.160;2023-05-10T07:32:06;9.32;;;2.30;;
44646;SDS011;56315;-33.902;151.160;2023-05-10T07:34:36;10.82;;;2.42;;
44646;SDS011;56315;-33.902;151.160;2023-05-10T07:37:03;8.85;;;2.20;;
44646;SDS011;56315;-33.902;151.160;2023-05-10T07:39:31;7.65;;;1.67;;
44646;SDS011;56315;-33.902;151.160;2023-05-10T07:41:58;8.75;;;2.35;;
44646;SDS011;56315;-33.902;151.160;2023-05-10T07:44:26;8.50;;;1.92;;
44646;SDS011;56315;-33.902;151.160;2023-05-10T07:46:53;10.98;;;2.50;;
44646;SDS011;56315;-33.902;151.160;2023-05-10T07:49:21;7.00;;;2.22;;
44646;SDS011;56315;-33.902;151.160;2023-05-10T07:51:51;6.10;;;1.92;;
44646;SDS011;56315;-33.902;151.160;2023-05-10T07:54:18;11.07;;;2.75;;
44646;SDS011;56315;-33.902;151.160;2023-05-10T07:56:46;7.53;;;1.98;;
44646;SDS011;56315;-33.902;151.160;2023-05-10T07:59:16;8.55;;;2.47;;
44646;SDS011;56315;-33.902;151.160;2023-05-10T08:01:44;8.32;;;1.95;;
44646;SDS011;56315;-33.902;151.160;2023-05-10T08:04:12;6.88;;;2.38;;
44646;SDS011;56315;-33.902;151.160;2023-05-10T08:06:39;4.93;;;1.90;;
44646;SDS011;56315;-33.902;151.160;2023-05-10T08:09:08;7.53;;;2.35;;
44646;SDS011;56315;-33.902;151.160;2023-05-10T08:11:36;8.10;;;2.00;;
44646;SDS011;56315;-33.902;151.160;2023-05-10T08:14:03;11.90;;;1.75;;
44646;SDS011;56315;-33.902;151.160;2023-05-10T08:16:31;7.70;;;1.95;;
44646;SDS011;56315;-33.902;151.160;2023-05-10T08:18:58;6.97;;;2.20;;
44646;SDS011;56315;-33.902;151.160;2023-05-10T08:21:25;7.22;;;2.00;;
44646;SDS011;56315;-33.902;151.160;2023-05-10T08:23:53;8.55;;;1.92;;
44646;SDS011;56315;-33.902;151.160;2023-05-10T08:26:20;7.38;;;1.92;;
44646;SDS011;56315;-33.902;151.160;2023-05-10T08:28:47;5.85;;;1.52;;
44646;SDS011;56315;-33.902;151.160;2023-05-10T08:31:15;6.05;;;1.52;;
44646;SDS011;56315;-33.902;151.160;2023-05-10T08:33:43;6.35;;;1.50;;
44646;SDS011;56315;-33.902;151.160;2023-05-10T08:36:11;5.55;;;1.60;;
44646;SDS011;56315;-33.902;151.160;2023-05-10T08:38:39;4.90;;;1.38;;
44646;SDS011;56315;-33.902;151.160;2023-05-10T08:41:07;12.73;;;2.28;;
44646;SDS011;56315;-33.902;151.160;2023-05-10T08:43:35;7.78;;;2.38;;
44646;SDS011;56315;-33.902;151.160;2023-05-10T08:46:03;6.30;;;1.60;;
44646;SDS011;56315;-33.902;151.160;2023-05-10T08:48:33;5.50;;;1.92;;
44646;SDS011;56315;-33.902;151.160;2023-05-10T08:51:01;5.28;;;1.83;;
44646;SDS011;56315;-33.902;151.160;2023-05-10T08:53:31;8.30;;;1.85;;
44646;SDS011;56315;-33.902;151.160;2023-05-10T08:56:01;6.18;;;2.00;;
44646;SDS011;56315;-33.902;151.160;2023-05-10T08:58:29;8.27;;;2.30;;
44646;SDS011;56315;-33.902;151.160;2023-05-10T09:00:57;6.70;;;1.98;;
44646;SDS011;56315;-33.902;151.160;2023-05-10T09:03:25;6.45;;;1.85;;
44646;SDS011;56315;-33.902;151.160;2023-05-10T09:05:53;8.93;;;2.50;;
44646;SDS011;56315;-33.902;151.160;2023-05-10T09:08:22;5.32;;;2.13;;
44646;SDS011;56315;-33.902;151.160;2023-05-10T09:10:51;7.78;;;2.40;;
44646;SDS011;56315;-33.902;151.160;2023-05-10T09:13:19;8.75;;;2.42;;
44646;SDS011;56315;-33.902;151.160;2023-05-10T09:15:49;6.95;;;2.97;;
44646;SDS011;56315;-33.902;151.160;2023-05-10T09:18:17;7.53;;;2.38;;
44646;SDS011;56315;-33.902;151.160;2023-05-10T09:20:44;11.18;;;3.05;;
44646;SDS011;56315;-33.902;151.160;2023-05-10T09:23:15;10.38;;;3.35;;
44646;SDS011;56315;-33.902;151.160;2023-05-10T09:25:42;8.10;;;2.88;;
44646;SDS011;56315;-33.902;151.160;2023-05-10T09:28:09;7.55;;;2.25;;
44646;SDS011;56315;-33.902;151.160;2023-05-10T09:30:37;8.98;;;2.80;;
44646;SDS011;56315;-33.902;151.160;2023-05-10T09:33:05;9.65;;;3.10;;
44646;SDS011;56315;-33.902;151.160;2023-05-10T09:35:32;15.60;;;5.82;;
44646;SDS011;56315;-33.902;151.160;2023-05-10T09:38:02;13.32;;;6.55;;
44646;SDS011;56315;-33.902;151.160;2023-05-10T09:40:30;10.90;;;4.05;;
44646;SDS011;56315;-33.902;151.160;2023-05-10T09:43:02;11.77;;;4.50;;
44646;SDS011;56315;-33.902;151.160;2023-05-10T09:45:33;8.88;;;3.72;;
44646;SDS011;56315;-33.902;151.160;2023-05-10T09:48:02;10.70;;;3.65;;
44646;SDS011;56315;-33.902;151.160;2023-05-10T09:50:30;10.10;;;2.92;;
44646;SDS011;56315;-33.902;151.160;2023-05-10T09:52:58;7.28;;;3.00;;
44646;SDS011;56315;-33.902;151.160;2023-05-10T09:55:37;7.57;;;3.55;;
44646;SDS011;56315;-33.902;151.160;2023-05-10T09:58:06;8.25;;;2.92;;
44646;SDS011;56315;-33.902;151.160;2023-05-10T10:00:37;7.82;;;4.07;;
44646;SDS011;56315;-33.902;151.160;2023-05-10T10:03:11;19.33;;;12.32;;
44646;SDS011;56315;-33.902;151.160;2023-05-10T10:05:46;13.93;;;9.02;;
44646;SDS011;56315;-33.902;151.160;2023-05-10T10:08:15;28.20;;;17.20;;
44646;SDS011;56315;-33.902;151.160;2023-05-10T10:10:43;26.67;;;16.52;;
44646;SDS011;56315;-33.902;151.160;2023-05-10T10:13:11;21.08;;;11.48;;
44646;SDS011;56315;-33.902;151.160;2023-05-10T10:15:39;16.98;;;9.50;;
44646;SDS011;56315;-33.902;151.160;2023-05-10T10:18:08;14.15;;;8.75;;
44646;SDS011;56315;-33.902;151.160;2023-05-10T10:20:43;16.77;;;10.00;;
44646;SDS011;56315;-33.902;151.160;2023-05-10T10:23:11;17.35;;;10.02;;
44646;SDS011;56315;-33.902;151.160;2023-05-10T10:25:38;15.52;;;8.70;;
44646;SDS011;56315;-33.902;151.160;2023-05-10T10:28:11;15.10;;;7.85;;
44646;SDS011;56315;-33.902;151.160;2023-05-10T10:31:01;11.25;;;6.95;;
44646;SDS011;56315;-33.902;151.160;2023-05-10T10:33:51;13.45;;;5.72;;
44646;SDS011;56315;-33.902;151.160;2023-05-10T10:36:47;8.75;;;4.85;;
44646;SDS011;56315;-33.902;151.160;2023-05-10T10:39:15;10.43;;;5.38;;
44646;SDS011;56315;-33.902;151.160;2023-05-10T10:41:50;11.52;;;6.70;;
44646;SDS011;56315;-33.902;151.160;2023-05-10T10:44:22;11.30;;;6.07;;
44646;SDS011;56315;-33.902;151.160;2023-05-10T10:49:50;11.73;;;5.60;;
44646;SDS011;56315;-33.902;151.160;2023-05-10T10:55:20;10.93;;;5.18;;
44646;SDS011;56315;-33.902;151.160;2023-05-10T10:57:52;11.73;;;4.63;;
44646;SDS011;56315;-33.902;151.160;2023-05-10T11:00:31;10.40;;;4.95;;
44646;SDS011;56315;-33.902;151.160;2023-05-10T11:08:25;14.13;;;4.57;;
44646;SDS011;56315;-33.902;151.160;2023-05-10T11:13:33;9.45;;;4.35;;
44646;SDS011;56315;-33.902;151.160;2023-05-10T11:16:14;15.98;;;6.35;;
44646;SDS011;56315;-33.902;151.160;2023-05-10T11:19:00;15.15;;;5.88;;
44646;SDS011;56315;-33.902;151.160;2023-05-10T11:21:29;10.32;;;6.22;;
44646;SDS011;56315;-33.902;151.160;2023-05-10T11:23:58;13.43;;;6.57;;
44646;SDS011;56315;-33.902;151.160;2023-05-10T11:26:31;12.07;;;6.57;;
44646;SDS011;56315;-33.902;151.160;2023-05-10T11:29:02;12.73;;;6.78;;
44646;SDS011;56315;-33.902;151.160;2023-05-10T11:31:30;12.57;;;7.18;;
44646;SDS011;56315;-33.902;151.160;2023-05-10T11:33:59;13.23;;;7.07;;
44646;SDS011;56315;-33.902;151.160;2023-05-10T11:36:34;13.25;;;8.55;;
44646;SDS011;56315;-33.902;151.160;2023-05-10T11:39:02;17.15;;;10.52;;
44646;SDS011;56315;-33.902;151.160;2023-05-10T11:41:30;18.55;;;11.48;;
44646;SDS011;56315;-33.902;151.160;2023-05-10T11:43:58;18.05;;;11.30;;
44646;SDS011;56315;-33.902;151.160;2023-05-10T11:46:26;18.30;;;10.95;;
44646;SDS011;56315;-33.902;151.160;2023-05-10T11:48:56;18.10;;;10.15;;
44646;SDS011;56315;-33.902;151.160;2023-05-10T11:51:35;14.75;;;9.07;;
44646;SDS011;56315;-33.902;151.160;2023-05-10T11:54:06;13.85;;;8.00;;
44646;SDS011;56315;-33.902;151.160;2023-05-10T11:56:35;15.10;;;8.32;;
44646;SDS011;56315;-33.902;151.160;2023-05-10T11:59:04;11.15;;;7.35;;
44646;SDS011;56315;-33.902;151.160;2023-05-10T12:01:31;12.13;;;7.28;;
44646;SDS011;56315;-33.902;151.160;2023-05-10T12:03:59;11.70;;;7.20;;
44646;SDS011;56315;-33.902;151.160;2023-05-10T12:06:27;11.18;;;7.10;;
44646;SDS011;56315;-33.902;151.160;2023-05-10T12:08:57;14.07;;;6.68;;
44646;SDS011;56315;-33.902;151.160;2023-05-10T12:11:25;10.90;;;7.00;;
44646;SDS011;56315;-33.902;151.160;2023-05-10T12:13:54;14.32;;;7.88;;
44646;SDS011;56315;-33.902;151.160;2023-05-10T12:16:22;12.45;;;6.07;;
44646;SDS011;56315;-33.902;151.160;2023-05-10T12:18:51;12.50;;;6.25;;
44646;SDS011;56315;-33.902;151.160;2023-05-10T12:21:20;11.27;;;6.75;;
44646;SDS011;56315;-33.902;151.160;2023-05-10T12:23:50;10.68;;;6.60;;
44646;SDS011;56315;-33.902;151.160;2023-05-10T12:26:24;13.57;;;6.78;;
44646;SDS011;56315;-33.902;151.160;2023-05-10T12:28:55;11.48;;;6.78;;
44646;SDS011;56315;-33.902;151.160;2023-05-10T12:31:52;13.70;;;7.47;;
44646;SDS011;56315;-33.902;151.160;2023-05-10T12:36:53;11.70;;;6.85;;
44646;SDS011;56315;-33.902;151.160;2023-05-10T12:39:21;10.23;;;6.25;;
44646;SDS011;56315;-33.902;151.160;2023-05-10T12:41:49;14.50;;;6.40;;
44646;SDS011;56315;-33.902;151.160;2023-05-10T12:44:16;11.88;;;6.78;;
44646;SDS011;56315;-33.902;151.160;2023-05-10T12:46:44;12.05;;;6.88;;
44646;SDS011;56315;-33.902;151.160;2023-05-10T12:49:11;10.38;;;6.18;;
44646;SDS011;56315;-33.902;151.160;2023-05-10T12:51:38;12.07;;;6.20;;
44646;SDS011;56315;-33.902;151.160;2023-05-10T12:54:05;14.52;;;7.25;;
44646;SDS011;56315;-33.902;151.160;2023-05-10T12:56:33;8.93;;;5.25;;
44646;SDS011;56315;-33.902;151.160;2023-05-10T12:59:00;11.85;;;5.80;;
44646;SDS011;56315;-33.902;151.160;2023-05-10T13:01:27;14.82;;;5.95;;
44646;SDS011;56315;-33.902;151.160;2023-05-10T13:03:55;13.10;;;5.80;;
44646;SDS011;56315;-33.902;151.160;2023-05-10T13:06:22;9.45;;;6.20;;
44646;SDS011;56315;-33.902;151.160;2023-05-10T13:08:49;10.10;;;6.10;;
44646;SDS011;56315;-33.902;151.160;2023-05-10T13:11:17;10.57;;;4.82;;
44646;SDS011;56315;-33.902;151.160;2023-05-10T13:13:45;10.13;;;4.90;;
44646;SDS011;56315;-33.902;151.160;2023-05-10T13:16:12;9.23;;;4.72;;
44646;SDS011;56315;-33.902;151.160;2023-05-10T13:18:40;12.50;;;5.07;;
44646;SDS011;56315;-33.902;151.160;2023-05-10T13:21:07;11.88;;;4.80;;
44646;SDS011;56315;-33.902;151.160;2023-05-10T13:23:34;10.18;;;4.30;;
44646;SDS011;56315;-33.902;151.160;2023-05-10T13:26:01;9.32;;;4.72;;
44646;SDS011;56315;-33.902;151.160;2023-05-10T13:28:28;8.07;;;4.68;;
44646;SDS011;56315;-33.902;151.160;2023-05-10T13:30:56;12.15;;;5.18;;
44646;SDS011;56315;-33.902;151.160;2023-05-10T13:33:25;8.70;;;4.80;;
44646;SDS011;56315;-33.902;151.160;2023-05-10T13:35:52;8.52;;;4.63;;
44646;SDS011;56315;-33.902;151.160;2023-05-10T13:38:19;10.65;;;5.13;;
44646;SDS011;56315;-33.902;151.160;2023-05-10T13:40:47;10.20;;;5.13;;
44646;SDS011;56315;-33.902;151.160;2023-05-10T13:43:18;8.60;;;4.05;;
44646;SDS011;56315;-33.902;151.160;2023-05-10T13:45:45;9.60;;;4.05;;
44646;SDS011;56315;-33.902;151.160;2023-05-10T13:48:13;9.65;;;4.15;;
44646;SDS011;56315;-33.902;151.160;2023-05-10T13:50:41;12.73;;;4.68;;
44646;SDS011;56315;-33.902;151.160;2023-05-10T13:53:08;13.18;;;4.63;;
44646;SDS011;56315;-33.902;151.160;2023-05-10T13:55:36;11.15;;;4.60;;
44646;SDS011;56315;-33.902;151.160;2023-05-10T13:58:03;9.77;;;4.65;;
44646;SDS011;56315;-33.902;151.160;2023-05-10T14:00:31;8.93;;;4.28;;
44646;SDS011;56315;-33.902;151.160;2023-05-10T14:02:58;10.50;;;4.80;;
44646;SDS011;56315;-33.902;151.160;2023-05-10T14:05:25;8.93;;;3.58;;
44646;SDS011;56315;-33.902;151.160;2023-05-10T14:07:53;7.35;;;4.18;;
44646;SDS011;56315;-33.902;151.160;2023-05-10T14:10:20;6.03;;;3.75;;
44646;SDS011;56315;-33.902;151.160;2023-05-10T14:12:47;8.90;;;3.88;;
44646;SDS011;56315;-33.902;151.160;2023-05-10T14:15:15;9.98;;;4.03;;
44646;SDS011;56315;-33.902;151.160;2023-05-10T14:17:42;6.45;;;3.78;;
44646;SDS011;56315;-33.902;151.160;2023-05-10T14:20:10;8.88;;;3.58;;
44646;SDS011;56315;-33.902;151.160;2023-05-10T14:22:37;9.32;;;4.03;;
44646;SDS011;56315;-33.902;151.160;2023-05-10T14:25:06;9.00;;;3.80;;
44646;SDS011;56315;-33.902;151.160;2023-05-10T14:27:33;7.70;;;3.97;;
44646;SDS011;56315;-33.902;151.160;2023-05-10T14:30:00;8.20;;;3.30;;
44646;SDS011;56315;-33.902;151.160;2023-05-10T14:32:28;9.77;;;3.78;;
44646;SDS011;56315;-33.902;151.160;2023-05-10T14:34:57;8.50;;;3.55;;
44646;SDS011;56315;-33.902;151.160;2023-05-10T14:37:25;9.25;;;3.70;;
44646;SDS011;56315;-33.902;151.160;2023-05-10T14:39:52;9.65;;;4.45;;
44646;SDS011;56315;-33.902;151.160;2023-05-10T14:42:19;7.32;;;3.22;;
44646;SDS011;56315;-33.902;151.160;2023-05-10T14:44:47;11.60;;;4.13;;
44646;SDS011;56315;-33.902;151.160;2023-05-10T14:47:14;6.93;;;3.30;;
44646;SDS011;56315;-33.902;151.160;2023-05-10T14:49:41;8.43;;;3.40;;
44646;SDS011;56315;-33.902;151.160;2023-05-10T14:52:08;9.60;;;3.88;;
44646;SDS011;56315;-33.902;151.160;2023-05-10T14:54:37;6.55;;;3.13;;